createdAt,value
2022-11-30T00:01:18.257Z,5.94
2022-11-30T00:06:21.731Z,5.92
2022-11-30T00:11:25.283Z,5.93
2022-11-30T00:16:28.775Z,5.96
2022-11-30T00:21:32.134Z,5.98
2022-11-30T00:26:35.622Z,5.93
2022-11-30T00:31:39.564Z,5.94
2022-11-30T00:36:42.627Z,5.93
2022-11-30T00:41:45.880Z,5.87
2022-11-30T00:46:50.575Z,5.94
2022-11-30T00:51:54.069Z,5.98
2022-11-30T00:56:57.333Z,5.9
2022-11-30T01:02:01.177Z,5.94
2022-11-30T01:07:04.868Z,5.88
2022-11-30T01:18:11.698Z,5.9
2022-11-30T01:23:15.204Z,5.95
2022-11-30T01:28:18.306Z,5.92
2022-11-30T01:33:22.876Z,5.98
2022-11-30T01:38:26.692Z,6.01
2022-11-30T01:43:30.630Z,5.96
2022-11-30T01:48:33.965Z,5.85
2022-11-30T01:59:06.998Z,5.87
2022-11-30T02:04:12.880Z,5.72
2022-11-30T02:14:47.088Z,5.73
2022-11-30T02:19:50.037Z,5.65
2022-11-30T02:24:53.201Z,5.73
2022-11-30T02:35:29.001Z,5.72
2022-11-30T02:40:34.717Z,5.64
2022-11-30T02:45:38.219Z,5.57
2022-11-30T02:50:41.614Z,5.61
2022-11-30T02:55:48.787Z,5.58
2022-11-30T03:00:56.474Z,5.56
2022-11-30T03:06:00.355Z,5.61
2022-11-30T03:11:05.904Z,5.54
2022-11-30T03:16:11.919Z,5.59
2022-11-30T03:21:17.601Z,5.51
2022-11-30T03:26:21.110Z,5.57
2022-11-30T03:31:24.454Z,5.54
2022-11-30T03:36:30.329Z,5.52
2022-11-30T03:41:33.920Z,5.6
2022-11-30T03:46:37.267Z,5.54
2022-11-30T03:51:40.885Z,5.54
2022-11-30T03:56:44.681Z,5.6
2022-11-30T04:01:48.142Z,5.55
2022-11-30T04:06:51.475Z,5.61
2022-11-30T04:11:55.027Z,5.57
2022-11-30T04:16:58.886Z,5.55
2022-11-30T04:22:02.063Z,5.55
2022-11-30T04:27:05.521Z,5.57
2022-11-30T04:32:09.109Z,5.56
2022-11-30T04:37:12.747Z,5.48
2022-11-30T04:42:15.741Z,5.53
2022-11-30T04:47:21.705Z,5.55
2022-11-30T04:52:24.893Z,5.47
2022-11-30T05:03:00.572Z,5.59
2022-11-30T05:08:04.378Z,5.56
2022-11-30T05:13:07.558Z,5.45
2022-11-30T05:18:10.725Z,5.38
2022-11-30T05:23:14.021Z,5.31
2022-11-30T05:28:17.012Z,5.3
2022-11-30T05:33:20.428Z,5.23
2022-11-30T05:38:23.902Z,5.29
2022-11-30T05:43:27.670Z,5.28
2022-11-30T05:48:30.812Z,5.29
2022-11-30T05:53:37.156Z,5.34
2022-11-30T05:58:40.690Z,5.29
2022-11-30T06:03:44.138Z,5.31
2022-11-30T06:08:47.717Z,5.26
2022-11-30T06:13:51.249Z,5.29
2022-11-30T06:18:55.472Z,5.31
2022-11-30T06:30:03.323Z,5.41
2022-11-30T06:35:06.414Z,5.28
2022-11-30T06:40:20.634Z,5.29
2022-11-30T06:45:28.203Z,5.38
2022-11-30T06:50:34.177Z,5.29
2022-11-30T06:55:38.598Z,5.44
2022-11-30T07:00:44.597Z,5.41
2022-11-30T07:05:49.904Z,5.49
2022-11-30T07:10:55.942Z,5.61
2022-11-30T07:15:59.368Z,5.59
2022-11-30T07:21:02.556Z,5.41
2022-11-30T07:26:06.084Z,5.44
2022-11-30T07:31:13.352Z,5.5
2022-11-30T07:36:13.435Z,5.41
2022-11-30T07:41:17.153Z,5.48
2022-11-30T07:46:22.831Z,5.39
2022-11-30T07:51:28.843Z,5.48
2022-11-30T07:56:31.831Z,5.48
2022-11-30T08:01:35.504Z,5.48
2022-11-30T08:06:38.457Z,5.53
2022-11-30T08:11:46.363Z,5.57
2022-11-30T08:16:50.247Z,5.61
2022-11-30T08:21:53.972Z,5.64
2022-11-30T08:27:02.153Z,5.67
2022-11-30T08:32:05.911Z,5.76
2022-11-30T08:37:09.608Z,5.82
2022-11-30T08:42:15.778Z,5.87
2022-11-30T08:53:24.436Z,6
2022-11-30T08:58:30.086Z,5.94
2022-11-30T09:03:36.345Z,5.94
2022-11-30T09:08:42.724Z,6.06
2022-11-30T09:13:48.043Z,6.06
2022-11-30T09:18:51.730Z,6.16
2022-11-30T09:23:55.230Z,6.28
2022-11-30T09:29:00.702Z,6.22
2022-11-30T09:34:04.151Z,6.42
2022-11-30T09:39:07.770Z,6.48
2022-11-30T09:44:13.892Z,6.54
2022-11-30T09:54:51.376Z,6.46
2022-11-30T09:59:54.891Z,6.58
2022-11-30T10:04:58.747Z,6.48
2022-11-30T10:10:30.743Z,6.72
2022-11-30T10:15:06.221Z,6.89
2022-11-30T10:20:12.185Z,6.82
2022-11-30T10:25:18.306Z,6.84
2022-11-30T10:30:25.394Z,7.05
2022-11-30T10:35:31.059Z,7.01
2022-11-30T10:40:38.362Z,7.38
2022-11-30T10:45:41.984Z,7.34
2022-11-30T10:50:45.726Z,7.23
2022-11-30T10:55:51.761Z,7.33
2022-11-30T11:00:55.853Z,7.23
2022-11-30T11:06:01.790Z,7.43
2022-11-30T11:11:05.014Z,7.31
2022-11-30T11:16:08.491Z,7.44
2022-11-30T11:21:14.321Z,7.44
2022-11-30T11:26:17.938Z,7.56
2022-11-30T11:31:24.839Z,7.4
2022-11-30T11:36:28.159Z,7.24
2022-11-30T11:41:35.024Z,7.25
2022-11-30T11:46:41.172Z,7.57
2022-11-30T11:51:47.020Z,7.42
2022-11-30T11:56:53.560Z,7.32
2022-11-30T12:01:57.524Z,7.31
2022-11-30T12:07:01.061Z,7.51
2022-11-30T12:12:07.005Z,7.42
2022-11-30T12:17:10.354Z,7.45
2022-11-30T12:22:15.878Z,7.41
2022-11-30T12:27:20.276Z,7.39
2022-11-30T12:32:24.313Z,7.33
2022-11-30T12:37:27.659Z,7.3
2022-11-30T12:42:32.270Z,7.14
2022-11-30T12:47:35.453Z,7.1
2022-11-30T12:52:41.342Z,6.93
2022-11-30T12:57:45.234Z,6.93
2022-11-30T13:03:02.299Z,7.17
2022-11-30T13:08:09.445Z,7.14
2022-11-30T13:13:12.550Z,7.07
2022-11-30T13:18:16.271Z,7.02
2022-11-30T13:23:22.110Z,7.2
2022-11-30T13:34:31.357Z,7.01
2022-11-30T13:39:34.746Z,6.87
2022-11-30T13:44:38.258Z,6.52
2022-11-30T13:49:41.943Z,6.46
2022-11-30T13:54:46.581Z,6.21
2022-11-30T13:59:52.031Z,5.93
2022-11-30T14:10:03.488Z,5.57
2022-11-30T14:15:10.316Z,5.48
2022-11-30T14:20:18.939Z,5.13
2022-11-30T14:25:25.301Z,5.24
2022-11-30T14:30:32.364Z,4.91
2022-11-30T14:35:39.226Z,4.66
2022-11-30T14:40:42.665Z,4.43
2022-11-30T14:56:01.959Z,3.49
2022-11-30T15:06:12.167Z,3.56
2022-11-30T15:11:20.134Z,3.48
2022-11-30T15:16:27.180Z,3.41
2022-11-30T15:21:33.165Z,3.51
2022-11-30T15:26:36.624Z,3.54
2022-11-30T15:31:39.846Z,3.58
2022-11-30T15:36:44.085Z,3.46
2022-11-30T15:41:49.894Z,3.49
2022-11-30T15:46:56.147Z,3.54
2022-11-30T15:52:02.096Z,3.39
2022-11-30T15:57:09.331Z,3.34
2022-11-30T16:07:42.470Z,3.27
2022-11-30T16:12:49.000Z,3.28
2022-11-30T16:17:53.680Z,3.44
2022-11-30T16:23:04.109Z,3.39
2022-11-30T16:28:05.728Z,3.37
2022-11-30T16:33:14.833Z,3.33
2022-11-30T16:38:23.604Z,3.44
2022-11-30T16:43:29.305Z,3.42
2022-11-30T16:48:32.593Z,3.29
2022-11-30T16:53:39.558Z,3.25
2022-11-30T16:58:45.749Z,3.32
2022-11-30T17:09:22.162Z,3.27
2022-11-30T17:14:27.746Z,3.19
2022-11-30T17:19:32.183Z,3.26
2022-11-30T17:24:38.253Z,3.37
2022-11-30T17:29:45.239Z,3.43
2022-11-30T17:34:51.514Z,3.42
2022-11-30T17:39:58.603Z,3.43
2022-11-30T17:45:04.908Z,3.6
2022-11-30T17:50:10.980Z,3.49
2022-11-30T17:55:19.110Z,3.61
2022-11-30T18:00:23.048Z,3.48
2022-11-30T18:05:30.009Z,3.49
2022-11-30T18:10:35.832Z,3.4
2022-11-30T18:15:42.008Z,3.4
2022-11-30T18:20:47.697Z,3.46
2022-11-30T18:25:53.798Z,3.45
2022-11-30T18:31:00.031Z,3.36
2022-11-30T18:36:06.628Z,3.27
2022-11-30T18:41:11.904Z,3.35
2022-11-30T18:46:20.239Z,3.34
2022-11-30T18:51:26.285Z,3.27
2022-11-30T19:02:02.186Z,3.35
2022-11-30T19:07:09.373Z,3.22
2022-11-30T19:12:15.877Z,3.2
2022-11-30T19:17:22.306Z,3.23
2022-11-30T19:22:33.618Z,3.07
2022-11-30T19:27:41.401Z,2.89
2022-11-30T19:32:47.381Z,2.91
2022-11-30T19:37:53.333Z,2.87
2022-11-30T19:42:59.070Z,2.86
2022-11-30T19:53:34.494Z,3.07
2022-11-30T19:58:40.092Z,2.96
2022-11-30T20:14:47.085Z,3.01
2022-11-30T20:25:21.717Z,2.84
2022-11-30T20:30:27.553Z,2.81
2022-11-30T20:35:33.302Z,2.92
2022-11-30T20:40:39.197Z,3.01
2022-11-30T20:51:07.575Z,2.97
2022-11-30T20:55:54.468Z,2.9
2022-11-30T21:01:00.735Z,2.86
2022-11-30T21:06:06.088Z,2.79
2022-11-30T21:11:11.893Z,2.82
2022-11-30T21:16:25.774Z,2.78
2022-11-30T21:21:26.491Z,2.78
2022-11-30T21:26:30.794Z,2.81
2022-11-30T21:31:38.196Z,2.87
2022-11-30T21:36:43.824Z,2.98
2022-11-30T21:41:49.856Z,2.96
2022-11-30T21:46:56.127Z,2.81
2022-11-30T21:52:01.389Z,2.8
2022-11-30T21:57:06.830Z,2.83
2022-11-30T22:02:12.388Z,2.71
2022-11-30T22:13:28.971Z,2.77
2022-11-30T22:18:34.469Z,2.78
2022-11-30T22:23:40.706Z,2.83
2022-11-30T22:28:46.555Z,2.78
2022-11-30T22:33:52.791Z,2.85
2022-11-30T22:38:59.688Z,2.66
2022-11-30T22:44:05.853Z,2.75
2022-11-30T22:54:39.510Z,2.82
2022-11-30T22:59:45.596Z,2.8
2022-11-30T23:04:51.310Z,2.67
2022-11-30T23:09:56.241Z,2.7
2022-11-30T23:15:03.942Z,2.77
2022-11-30T23:20:10.161Z,2.74
2022-11-30T23:25:16.194Z,2.61
2022-11-30T23:30:20.197Z,2.65
2022-11-30T23:35:25.808Z,2.64
2022-11-30T23:40:29.336Z,2.65
2022-11-30T23:45:35.224Z,2.58
2022-11-30T23:50:42.379Z,2.72
2022-11-30T23:55:48.685Z,2.65
